createdAt,value
2023-04-15T00:01:45.218Z,10.25
2023-04-15T00:04:13.209Z,10.25
2023-04-15T00:06:41.112Z,10.25
2023-04-15T00:09:09.000Z,10.26
2023-04-15T00:11:36.753Z,10.26
2023-04-15T00:14:04.653Z,10.28
2023-04-15T00:16:32.606Z,10.28
2023-04-15T00:19:00.666Z,10.30
2023-04-15T00:21:29.167Z,10.30
2023-04-15T00:23:56.940Z,10.29
2023-04-15T00:26:24.655Z,10.29
2023-04-15T00:28:52.400Z,10.27
2023-04-15T00:31:21.020Z,10.25
2023-04-15T00:33:49.069Z,10.23
2023-04-15T00:36:16.917Z,10.22
2023-04-15T00:38:44.716Z,10.18
2023-04-15T00:41:13.074Z,10.16
2023-04-15T00:43:41.123Z,10.14
2023-04-15T00:46:10.767Z,10.12
2023-04-15T00:48:39.314Z,10.10
2023-04-15T00:51:07.754Z,10.08
2023-04-15T00:53:35.871Z,10.07
2023-04-15T00:56:03.942Z,10.04
2023-04-15T00:58:32.038Z,10.01
2023-04-15T01:01:00.297Z,9.98
2023-04-15T01:03:29.798Z,9.95
2023-04-15T01:05:58.863Z,9.93
2023-04-15T01:08:29.918Z,9.89
2023-04-15T01:10:59.362Z,9.86
2023-04-15T01:13:28.023Z,9.82
2023-04-15T01:15:57.967Z,9.79
2023-04-15T01:18:26.194Z,9.74
2023-04-15T01:20:54.286Z,9.72
2023-04-15T01:23:23.364Z,9.70
2023-04-15T01:25:53.643Z,9.66
2023-04-15T01:28:21.464Z,9.62
2023-04-15T01:30:49.319Z,9.59
2023-04-15T01:33:17.181Z,9.55
2023-04-15T01:35:45.043Z,9.53
2023-04-15T01:38:13.731Z,9.50
2023-04-15T01:40:41.490Z,9.48
2023-04-15T01:43:09.563Z,9.45
2023-04-15T01:45:37.740Z,9.42
2023-04-15T01:48:05.980Z,9.40
2023-04-15T01:50:34.162Z,9.39
2023-04-15T01:53:02.326Z,9.36
2023-04-15T01:55:31.144Z,9.35
2023-04-15T01:57:58.909Z,9.34
2023-04-15T02:00:26.884Z,9.32
2023-04-15T02:02:54.800Z,9.30
2023-04-15T02:05:22.811Z,9.28
2023-04-15T02:07:50.626Z,9.22
2023-04-15T02:10:18.545Z,9.18
2023-04-15T02:12:46.752Z,9.15
2023-04-15T02:15:14.682Z,9.13
2023-04-15T02:17:46.001Z,9.10
2023-04-15T02:20:13.896Z,9.06
2023-04-15T02:22:41.766Z,9.05
2023-04-15T02:25:10.450Z,9.02
2023-04-15T02:27:38.325Z,8.99
2023-04-15T02:30:07.491Z,8.98
2023-04-15T02:32:35.553Z,8.96
2023-04-15T02:35:05.802Z,8.94
2023-04-15T02:37:40.843Z,8.93
2023-04-15T02:40:13.619Z,8.93
2023-04-15T02:42:42.848Z,8.92
2023-04-15T02:45:12.746Z,8.90
2023-04-15T02:47:41.627Z,8.87
2023-04-15T02:50:12.709Z,8.86
2023-04-15T02:52:42.074Z,8.86
2023-04-15T02:55:10.364Z,8.85
2023-04-15T02:57:39.461Z,8.84
2023-04-15T03:00:09.868Z,8.82
2023-04-15T03:02:39.564Z,8.80
2023-04-15T03:05:11.745Z,8.82
2023-04-15T03:07:41.191Z,8.83
2023-04-15T03:10:10.616Z,8.84
2023-04-15T03:12:38.419Z,8.85
2023-04-15T03:15:06.933Z,8.85
2023-04-15T03:17:34.789Z,8.86
2023-04-15T03:20:06.592Z,8.87
2023-04-15T03:22:34.529Z,8.85
2023-04-15T03:25:02.360Z,8.85
2023-04-15T03:27:30.229Z,8.84
2023-04-15T03:29:57.963Z,8.85
2023-04-15T03:32:26.084Z,8.85
2023-04-15T03:34:53.920Z,8.86
2023-04-15T03:37:21.854Z,8.85
2023-04-15T03:39:49.755Z,8.86
2023-04-15T03:42:17.654Z,8.85
2023-04-15T03:44:45.456Z,8.86
2023-04-15T03:47:13.353Z,8.86
2023-04-15T03:49:41.586Z,8.86
2023-04-15T03:52:09.610Z,8.85
2023-04-15T03:54:37.459Z,8.85
2023-04-15T03:57:05.171Z,8.85
2023-04-15T03:59:32.920Z,8.85
2023-04-15T04:02:01.026Z,8.85
2023-04-15T04:04:29.089Z,8.84
2023-04-15T04:06:56.991Z,8.84
2023-04-15T04:09:24.861Z,8.84
2023-04-15T04:11:52.734Z,8.85
2023-04-15T04:14:20.690Z,8.83
2023-04-15T04:16:48.490Z,8.82
2023-04-15T04:19:19.666Z,8.83
2023-04-15T04:21:47.575Z,8.83
2023-04-15T04:24:15.736Z,8.82
2023-04-15T04:26:44.116Z,8.82
2023-04-15T04:29:11.979Z,8.82
2023-04-15T04:31:39.871Z,8.82
2023-04-15T04:34:08.017Z,8.81
2023-04-15T04:36:36.103Z,8.82
2023-04-15T04:39:04.199Z,8.81
2023-04-15T04:41:32.538Z,8.81
2023-04-15T04:44:00.509Z,8.82
2023-04-15T04:46:28.393Z,8.83
2023-04-15T04:48:56.245Z,8.83
2023-04-15T04:51:24.201Z,8.83
2023-04-15T04:53:52.069Z,8.84
2023-04-15T04:56:19.946Z,8.84
2023-04-15T04:58:47.800Z,8.84
2023-04-15T05:01:15.769Z,8.83
2023-04-15T05:03:43.850Z,8.83
2023-04-15T05:06:11.759Z,8.84
2023-04-15T05:08:41.015Z,8.83
2023-04-15T05:11:09.295Z,8.83
2023-04-15T05:13:38.913Z,8.83
2023-04-15T05:16:07.772Z,8.84
2023-04-15T05:18:35.771Z,8.85
2023-04-15T05:21:03.729Z,8.86
2023-04-15T05:23:31.720Z,8.86
2023-04-15T05:25:59.559Z,8.87
2023-04-15T05:28:27.631Z,8.87
2023-04-15T05:30:55.823Z,8.88
2023-04-15T05:33:23.772Z,8.87
2023-04-15T05:35:51.997Z,8.87
2023-04-15T05:38:19.811Z,8.88
2023-04-15T05:40:47.879Z,8.88
2023-04-15T05:43:15.848Z,8.89
2023-04-15T05:45:43.610Z,8.91
2023-04-15T05:48:11.399Z,8.92
2023-04-15T05:50:42.184Z,8.93
2023-04-15T05:53:10.096Z,8.94
2023-04-15T05:55:37.939Z,8.94
2023-04-15T05:58:05.808Z,8.96
2023-04-15T06:00:33.889Z,8.96
2023-04-15T06:03:01.909Z,8.95
2023-04-15T06:05:30.121Z,8.95
2023-04-15T06:07:57.990Z,8.96
2023-04-15T06:10:25.921Z,8.97
2023-04-15T06:12:54.359Z,8.98
2023-04-15T06:15:22.196Z,8.98
2023-04-15T06:17:50.136Z,8.99
2023-04-15T06:20:18.031Z,8.99
2023-04-15T06:22:45.827Z,8.99
2023-04-15T06:25:14.274Z,8.99
2023-04-15T06:27:42.250Z,8.99
2023-04-15T06:30:10.650Z,8.98
2023-04-15T06:32:38.559Z,8.97
2023-04-15T06:35:06.560Z,8.96
2023-04-15T06:37:34.424Z,8.97
2023-04-15T06:40:02.320Z,8.99
2023-04-15T06:42:30.352Z,9.00
2023-04-15T06:44:58.224Z,9.01
2023-04-15T06:47:26.303Z,9.03
2023-04-15T06:49:54.563Z,9.05
2023-04-15T06:52:22.432Z,9.06
2023-04-15T06:54:50.203Z,9.08
2023-04-15T06:57:17.959Z,9.10
2023-04-15T06:59:46.336Z,9.12
2023-04-15T07:02:14.951Z,9.13
2023-04-15T07:04:42.782Z,9.14
2023-04-15T07:07:10.604Z,9.14
2023-04-15T07:09:38.788Z,9.14
2023-04-15T07:12:06.643Z,9.12
2023-04-15T07:14:34.513Z,9.11
2023-04-15T07:17:02.925Z,9.12
2023-04-15T07:19:30.770Z,9.12
2023-04-15T07:21:58.546Z,9.12
2023-04-15T07:24:27.094Z,9.12
2023-04-15T07:26:59.416Z,9.13
2023-04-15T07:29:28.664Z,9.12
2023-04-15T07:31:57.347Z,9.16
2023-04-15T07:34:26.032Z,9.21
2023-04-15T07:36:53.922Z,9.23
2023-04-15T07:39:21.866Z,9.24
2023-04-15T07:41:49.957Z,9.26
2023-04-15T07:44:17.808Z,9.30
2023-04-15T07:46:45.674Z,9.31
2023-04-15T07:49:13.654Z,9.33
2023-04-15T07:51:42.527Z,9.35
2023-04-15T07:54:16.549Z,9.38
2023-04-15T07:56:44.407Z,9.38
2023-04-15T07:59:13.112Z,9.41
2023-04-15T08:01:41.059Z,9.43
2023-04-15T08:04:09.354Z,9.43
2023-04-15T08:06:40.108Z,9.45
2023-04-15T08:09:08.452Z,9.48
2023-04-15T08:11:36.853Z,9.48
2023-04-15T08:14:04.743Z,9.50
2023-04-15T08:16:33.400Z,9.52
2023-04-15T08:19:02.489Z,9.56
2023-04-15T08:21:41.264Z,9.57
2023-04-15T08:24:09.396Z,9.58
2023-04-15T08:26:38.481Z,9.60
2023-04-15T08:29:06.875Z,9.62
2023-04-15T08:31:34.805Z,9.64
2023-04-15T08:34:03.012Z,9.68
2023-04-15T08:36:32.576Z,9.73
2023-04-15T08:39:05.191Z,9.78
2023-04-15T08:41:41.752Z,9.85
2023-04-15T08:44:11.001Z,9.91
2023-04-15T08:46:40.101Z,9.93
2023-04-15T08:49:13.684Z,9.96
2023-04-15T08:51:43.408Z,10.03
2023-04-15T08:54:14.510Z,10.09
2023-04-15T08:56:43.156Z,10.16
2023-04-15T08:59:13.085Z,10.19
2023-04-15T09:01:41.683Z,10.21
2023-04-15T09:04:13.097Z,10.23
2023-04-15T09:06:41.835Z,10.22
2023-04-15T09:09:09.892Z,10.24
2023-04-15T09:11:37.765Z,10.26
2023-04-15T09:14:05.624Z,10.26
2023-04-15T09:17:01.070Z,10.23
2023-04-15T09:19:29.363Z,10.22
2023-04-15T09:22:00.152Z,10.25
2023-04-15T09:24:39.383Z,10.29
2023-04-15T09:27:07.750Z,10.29
2023-04-15T09:29:35.647Z,10.31
2023-04-15T09:32:11.502Z,10.34
2023-04-15T09:34:39.355Z,10.34
2023-04-15T09:37:08.061Z,10.35
2023-04-15T09:39:47.690Z,10.33
2023-04-15T09:42:17.685Z,10.29
2023-04-15T09:44:45.594Z,10.27
2023-04-15T09:47:28.271Z,10.29
2023-04-15T09:49:57.735Z,10.35
2023-04-15T09:52:26.130Z,10.40
2023-04-15T09:54:56.616Z,10.42
2023-04-15T09:57:25.065Z,10.44
2023-04-15T09:59:53.414Z,10.45
2023-04-15T10:02:22.078Z,10.48
2023-04-15T10:04:51.986Z,10.48
2023-04-15T10:07:22.511Z,10.48
2023-04-15T10:09:51.449Z,10.50
2023-04-15T10:12:20.117Z,10.53
2023-04-15T10:14:58.974Z,10.57
2023-04-15T10:17:31.640Z,10.61
2023-04-15T10:20:02.412Z,10.60
2023-04-15T10:22:31.563Z,10.59
2023-04-15T10:25:02.444Z,10.61
2023-04-15T10:27:31.281Z,10.63
2023-04-15T10:30:01.129Z,10.66
2023-04-15T10:32:29.919Z,10.69
2023-04-15T10:34:58.793Z,10.73
2023-04-15T10:37:37.690Z,10.78
2023-04-15T10:40:32.567Z,10.85
2023-04-15T10:43:02.442Z,10.93
2023-04-15T10:45:36.896Z,10.99
2023-04-15T10:48:07.720Z,11.05
2023-04-15T10:50:37.789Z,11.11
2023-04-15T10:53:05.885Z,11.18
2023-04-15T10:55:34.696Z,11.29
2023-04-15T10:58:03.279Z,11.40
2023-04-15T11:00:32.825Z,11.51
2023-04-15T11:03:08.485Z,11.62
2023-04-15T11:05:39.401Z,11.69
2023-04-15T11:08:08.897Z,11.76
2023-04-15T11:10:36.768Z,11.83
2023-04-15T11:13:16.849Z,11.90
2023-04-15T11:15:46.525Z,11.99
2023-04-15T11:18:30.265Z,12.03
2023-04-15T11:21:01.540Z,12.04
2023-04-15T11:23:38.146Z,12.04
2023-04-15T11:26:15.466Z,12.05
2023-04-15T11:28:45.420Z,12.03
2023-04-15T11:31:18.428Z,12.08
2023-04-15T11:34:01.581Z,12.12
2023-04-15T11:36:32.370Z,12.16
2023-04-15T11:39:00.971Z,12.24
2023-04-15T11:41:29.696Z,12.32
2023-04-15T11:43:57.508Z,12.41
2023-04-15T11:46:32.224Z,12.52
2023-04-15T11:49:00.464Z,12.60
2023-04-15T11:51:33.971Z,12.67
2023-04-15T11:54:02.146Z,12.72
2023-04-15T11:56:31.343Z,12.77
2023-04-15T11:59:00.171Z,12.78
2023-04-15T12:01:32.591Z,12.78
2023-04-15T12:04:01.883Z,12.79
2023-04-15T12:06:36.987Z,12.79
2023-04-15T12:09:12.099Z,12.73
2023-04-15T12:11:50.032Z,12.69
2023-04-15T12:14:30.844Z,12.64
2023-04-15T12:17:05.025Z,12.56
2023-04-15T12:19:38.051Z,12.58
2023-04-15T12:22:11.067Z,12.68
2023-04-15T12:24:40.022Z,12.79
2023-04-15T12:27:11.391Z,12.88
2023-04-15T12:29:42.138Z,12.94
2023-04-15T12:32:12.607Z,13.07
2023-04-15T12:34:42.114Z,13.16
2023-04-15T12:37:13.368Z,13.17
2023-04-15T12:39:43.527Z,13.20
2023-04-15T12:42:12.465Z,13.24
2023-04-15T12:44:40.473Z,13.21
2023-04-15T12:47:09.580Z,13.12
2023-04-15T12:49:38.422Z,13.03
2023-04-15T12:52:06.900Z,12.96
2023-04-15T12:54:36.258Z,12.86
2023-04-15T12:57:06.760Z,12.72
2023-04-15T12:59:36.638Z,12.61
2023-04-15T13:02:04.726Z,12.53
2023-04-15T13:04:33.058Z,12.53
2023-04-15T13:07:02.318Z,12.64
2023-04-15T13:09:30.373Z,12.78
2023-04-15T13:11:58.532Z,12.90
2023-04-15T13:14:27.234Z,12.98
2023-04-15T13:16:55.188Z,13.06
2023-04-15T13:19:23.075Z,13.09
2023-04-15T13:21:51.184Z,13.16
2023-04-15T13:24:18.986Z,13.23
2023-04-15T13:26:48.525Z,13.29
2023-04-15T13:29:17.527Z,13.34
2023-04-15T13:31:45.632Z,13.34
2023-04-15T13:34:13.622Z,13.40
2023-04-15T13:36:42.005Z,13.44
2023-04-15T13:39:09.862Z,13.45
2023-04-15T13:41:37.735Z,13.45
2023-04-15T13:44:06.498Z,13.41
2023-04-15T13:46:34.611Z,13.34
2023-04-15T13:49:02.558Z,13.25
2023-04-15T13:51:31.235Z,13.23
2023-04-15T13:53:59.724Z,13.26
2023-04-15T13:56:27.689Z,13.34
2023-04-15T13:58:59.076Z,13.39
2023-04-15T14:01:27.526Z,13.32
2023-04-15T14:03:56.304Z,13.19
2023-04-15T14:06:24.859Z,13.10
2023-04-15T14:08:53.456Z,13.06
2023-04-15T14:11:21.620Z,13.06
2023-04-15T14:13:49.745Z,13.06
2023-04-15T14:16:17.555Z,13.08
2023-04-15T14:18:48.504Z,13.10
2023-04-15T14:21:16.885Z,13.09
2023-04-15T14:23:44.749Z,13.07
2023-04-15T14:26:14.066Z,13.07
2023-04-15T14:28:43.044Z,13.11
2023-04-15T14:31:11.218Z,13.17
2023-04-15T14:33:39.086Z,13.20
2023-04-15T14:36:08.111Z,13.23
2023-04-15T14:38:40.263Z,13.27
2023-04-15T14:41:09.019Z,13.30
2023-04-15T14:43:36.982Z,13.36
2023-04-15T14:46:05.091Z,13.41
2023-04-15T14:48:33.250Z,13.50
2023-04-15T14:51:01.315Z,13.64
2023-04-15T14:53:29.481Z,13.78
2023-04-15T14:55:57.332Z,13.89
2023-04-15T14:58:25.467Z,13.90
2023-04-15T15:00:53.402Z,13.85
2023-04-15T15:03:21.376Z,13.81
2023-04-15T15:05:49.327Z,13.77
2023-04-15T15:08:17.306Z,13.72
2023-04-15T15:10:49.771Z,13.63
2023-04-15T15:13:19.103Z,13.58
2023-04-15T15:15:49.454Z,13.52
2023-04-15T15:18:19.419Z,13.47
2023-04-15T15:20:47.858Z,13.41
2023-04-15T15:23:16.158Z,13.35
2023-04-15T15:25:45.967Z,13.34
2023-04-15T15:28:13.856Z,13.35
2023-04-15T15:30:41.704Z,13.30
2023-04-15T15:33:09.570Z,13.27
2023-04-15T15:35:37.539Z,13.31
2023-04-15T15:38:06.439Z,13.27
2023-04-15T15:40:34.239Z,13.17
2023-04-15T15:43:02.013Z,13.07
2023-04-15T15:45:30.640Z,12.97
2023-04-15T15:47:59.391Z,12.83
2023-04-15T15:50:27.596Z,12.75
2023-04-15T15:52:55.693Z,12.66
2023-04-15T15:55:25.379Z,12.59
2023-04-15T15:57:54.515Z,12.58
2023-04-15T16:00:23.382Z,12.56
2023-04-15T16:03:06.895Z,12.56
2023-04-15T16:05:36.184Z,12.55
2023-04-15T16:08:04.566Z,12.50
2023-04-15T16:10:32.538Z,12.50
2023-04-15T16:13:00.614Z,12.48
2023-04-15T16:15:28.683Z,12.50
2023-04-15T16:17:56.824Z,12.50
2023-04-15T16:20:24.693Z,12.53
2023-04-15T16:22:52.533Z,12.65
2023-04-15T16:25:20.581Z,12.84
2023-04-15T16:28:00.799Z,13.04
2023-04-15T16:30:37.024Z,13.38
2023-04-15T16:33:08.528Z,13.43
2023-04-15T16:35:36.379Z,13.33
2023-04-15T16:38:04.244Z,13.21
2023-04-15T16:40:33.060Z,13.09
2023-04-15T16:43:00.908Z,12.98
2023-04-15T16:45:28.767Z,12.86
2023-04-15T16:47:57.073Z,12.73
2023-04-15T16:50:25.216Z,12.62
2023-04-15T16:52:53.203Z,12.50
2023-04-15T16:55:21.169Z,12.38
2023-04-15T16:58:01.506Z,12.24
2023-04-15T17:00:32.153Z,12.12
2023-04-15T17:03:03.768Z,12.04
2023-04-15T17:05:31.834Z,11.92
2023-04-15T17:07:59.737Z,11.82
2023-04-15T17:10:28.407Z,11.74
2023-04-15T17:12:57.210Z,11.66
2023-04-15T17:15:25.548Z,11.60
2023-04-15T17:17:53.738Z,11.53
2023-04-15T17:20:22.090Z,11.45
2023-04-15T17:22:50.221Z,11.35
2023-04-15T17:25:18.575Z,11.24
2023-04-15T17:27:46.554Z,11.15
2023-04-15T17:30:14.412Z,11.05
2023-04-15T17:32:42.359Z,10.96
2023-04-15T17:35:10.742Z,10.88
2023-04-15T17:37:39.041Z,10.81
2023-04-15T17:40:08.761Z,10.74
2023-04-15T17:42:36.738Z,10.67
2023-04-15T17:45:05.057Z,10.60
2023-04-15T17:47:32.941Z,10.53
2023-04-15T17:50:01.139Z,10.48
2023-04-15T17:52:29.009Z,10.43
2023-04-15T17:54:57.073Z,10.38
2023-04-15T17:57:25.442Z,10.34
2023-04-15T17:59:53.235Z,10.30
2023-04-15T18:02:21.145Z,10.28
2023-04-15T18:04:49.508Z,10.26
2023-04-15T18:07:17.455Z,10.24
2023-04-15T18:09:46.018Z,10.24
2023-04-15T18:12:14.074Z,10.21
2023-04-15T18:14:41.990Z,10.21
2023-04-15T18:17:09.900Z,10.19
2023-04-15T18:19:37.766Z,10.18
2023-04-15T18:22:07.074Z,10.17
2023-04-15T18:24:35.427Z,10.15
2023-04-15T18:27:03.864Z,10.14
2023-04-15T18:29:31.791Z,10.13
2023-04-15T18:32:00.487Z,10.11
2023-04-15T18:34:29.717Z,10.09
2023-04-15T18:36:58.508Z,10.08
2023-04-15T18:39:27.474Z,10.07
2023-04-15T18:41:56.420Z,10.06
2023-04-15T18:44:24.521Z,10.04
2023-04-15T18:46:52.393Z,10.03
2023-04-15T19:03:19.635Z,10.44
2023-04-15T19:05:47.766Z,10.35
2023-04-15T19:08:15.513Z,10.26
2023-04-15T19:10:43.264Z,10.16
2023-04-15T19:13:11.056Z,10.06
2023-04-15T19:15:38.699Z,10.00
2023-04-15T19:18:10.476Z,9.95
2023-04-15T19:20:39.986Z,9.89
2023-04-15T19:23:08.360Z,9.85
2023-04-15T19:25:37.047Z,9.81
2023-04-15T19:28:05.034Z,9.76
2023-04-15T19:30:33.106Z,9.72
2023-04-15T19:33:00.820Z,9.67
2023-04-15T19:35:28.609Z,9.62
2023-04-15T19:37:56.370Z,9.57
2023-04-15T19:40:24.230Z,9.52
2023-04-15T19:42:51.900Z,9.48
2023-04-15T19:45:19.910Z,9.43
2023-04-15T19:47:48.074Z,9.39
2023-04-15T19:50:41.377Z,9.36
2023-04-15T19:53:14.333Z,9.33
2023-04-15T19:55:45.450Z,9.32
2023-04-15T19:58:14.586Z,9.31
2023-04-15T20:00:42.516Z,9.31
2023-04-15T20:03:10.819Z,9.30
2023-04-15T20:05:38.710Z,9.29
2023-04-15T20:08:06.600Z,9.29
2023-04-15T20:10:35.393Z,9.28
2023-04-15T20:13:03.156Z,9.27
2023-04-15T20:15:30.873Z,9.25
2023-04-15T20:18:01.871Z,9.24
2023-04-15T20:20:31.653Z,9.24
2023-04-15T20:22:59.292Z,9.22
2023-04-15T20:25:27.040Z,9.20
2023-04-15T20:27:54.706Z,9.19
2023-04-15T20:30:22.507Z,9.19
2023-04-15T20:32:50.362Z,9.18
2023-04-15T20:35:18.171Z,9.17
2023-04-15T20:37:45.961Z,9.15
2023-04-15T20:40:14.511Z,9.13
2023-04-15T20:42:43.813Z,9.11
2023-04-15T20:45:11.770Z,9.09
2023-04-15T20:47:39.451Z,9.06
2023-04-15T20:50:08.170Z,9.04
2023-04-15T20:52:36.268Z,9.02
2023-04-15T20:55:04.733Z,9.00
2023-04-15T20:57:32.362Z,8.97
2023-04-15T21:00:00.040Z,8.94
2023-04-15T21:02:27.913Z,8.91
2023-04-15T21:04:55.999Z,8.86
2023-04-15T21:07:23.664Z,8.84
2023-04-15T21:09:51.499Z,8.81
2023-04-15T21:12:19.193Z,8.79
2023-04-15T21:14:46.937Z,8.78
2023-04-15T21:17:14.742Z,8.78
2023-04-15T21:19:42.917Z,8.75
2023-04-15T21:22:10.919Z,8.74
2023-04-15T21:24:38.728Z,8.73
2023-04-15T21:27:06.451Z,8.72
2023-04-15T21:29:34.256Z,8.70
2023-04-15T21:32:02.052Z,8.69
2023-04-15T21:34:30.189Z,8.68
2023-04-15T21:36:57.830Z,8.67
2023-04-15T21:39:25.906Z,8.65
2023-04-15T21:41:53.633Z,8.66
2023-04-15T21:44:21.366Z,8.66
2023-04-15T21:46:49.137Z,8.65
2023-04-15T21:49:17.158Z,8.64
2023-04-15T21:51:45.779Z,8.65
2023-04-15T21:54:13.803Z,8.64
2023-04-15T21:56:42.623Z,8.63
2023-04-15T21:59:10.614Z,8.61
2023-04-15T22:01:38.458Z,8.60
2023-04-15T22:04:07.707Z,8.61
2023-04-15T22:06:35.620Z,8.60
2023-04-15T22:09:03.486Z,8.59
2023-04-15T22:11:32.300Z,8.58
2023-04-15T22:13:59.921Z,8.57
2023-04-15T22:16:28.187Z,8.57
2023-04-15T22:18:56.206Z,8.56
2023-04-15T22:21:24.061Z,8.56
2023-04-15T22:23:52.241Z,8.55
2023-04-15T22:26:19.910Z,8.55
2023-04-15T22:28:47.583Z,8.55
2023-04-15T22:31:15.425Z,8.56
2023-04-15T22:33:43.166Z,8.57
2023-04-15T22:36:11.234Z,8.57
2023-04-15T22:38:38.902Z,8.57
2023-04-15T22:41:06.756Z,8.56
2023-04-15T22:43:34.417Z,8.57
2023-04-15T22:46:02.079Z,8.57
2023-04-15T22:48:29.948Z,8.59
2023-04-15T22:50:57.564Z,8.59
2023-04-15T22:53:25.359Z,8.57
2023-04-15T22:55:54.038Z,8.56
2023-04-15T22:58:21.695Z,8.58
2023-04-15T23:00:50.289Z,8.59
2023-04-15T23:03:18.089Z,8.58
2023-04-15T23:05:46.212Z,8.58
2023-04-15T23:08:13.869Z,8.59
2023-04-15T23:10:41.625Z,8.59
2023-04-15T23:13:09.259Z,8.59
2023-04-15T23:15:37.095Z,8.59
2023-04-15T23:18:04.882Z,8.60
2023-04-15T23:20:33.931Z,8.60
2023-04-15T23:23:01.686Z,8.60
2023-04-15T23:25:29.379Z,8.58
2023-04-15T23:27:57.053Z,8.58
2023-04-15T23:30:24.781Z,8.59
2023-04-15T23:32:52.633Z,8.59
2023-04-15T23:35:21.077Z,8.59
2023-04-15T23:37:48.697Z,8.57
2023-04-15T23:40:16.555Z,8.56
2023-04-15T23:42:44.520Z,8.57
2023-04-15T23:45:12.687Z,8.58
2023-04-15T23:47:40.405Z,8.59
2023-04-15T23:50:09.070Z,8.58
2023-04-15T23:52:37.063Z,8.57
2023-04-15T23:55:05.049Z,8.58
2023-04-15T23:57:32.721Z,8.58
